createdAt,value
2023-03-15T00:00:10.500Z,4.28
2023-03-15T00:02:39.328Z,9.82
2023-03-15T00:05:08.887Z,7.88
2023-03-15T00:07:38.533Z,6.47
2023-03-15T00:10:08.280Z,5.07
2023-03-15T00:12:36.637Z,7.32
2023-03-15T00:15:05.351Z,5.70
2023-03-15T00:17:34.904Z,7.72
2023-03-15T00:20:04.259Z,5.30
2023-03-15T00:22:32.477Z,5.07
2023-03-15T00:25:02.528Z,5.18
2023-03-15T00:27:30.799Z,6.03
2023-03-15T00:29:59.098Z,4.32
2023-03-15T00:32:27.591Z,6.28
2023-03-15T00:34:55.852Z,5.50
2023-03-15T00:37:25.734Z,4.45
2023-03-15T00:39:56.036Z,5.40
2023-03-15T00:42:27.686Z,3.58
2023-03-15T00:44:56.832Z,4.10
2023-03-15T00:47:25.709Z,3.42
2023-03-15T00:49:54.051Z,3.75
2023-03-15T00:52:23.043Z,4.50
2023-03-15T00:54:55.104Z,4.03
2023-03-15T00:57:23.774Z,3.63
2023-03-15T00:59:53.432Z,3.33
2023-03-15T01:02:22.370Z,3.38
2023-03-15T01:04:51.379Z,4.18
2023-03-15T01:07:19.793Z,3.97
2023-03-15T01:09:48.723Z,3.65
2023-03-15T01:12:17.080Z,4.50
2023-03-15T01:14:45.457Z,4.65
2023-03-15T01:17:15.200Z,4.70
2023-03-15T01:19:43.613Z,3.70
2023-03-15T01:22:11.800Z,4.50
2023-03-15T01:24:40.169Z,4.70
2023-03-15T01:27:08.539Z,4.25
2023-03-15T01:29:36.901Z,4.90
2023-03-15T01:32:05.952Z,7.25
2023-03-15T01:34:35.841Z,4.25
2023-03-15T01:37:04.320Z,3.50
2023-03-15T01:39:32.713Z,6.53
2023-03-15T01:42:01.339Z,4.63
2023-03-15T01:44:50.698Z,4.10
2023-03-15T01:47:19.049Z,3.92
2023-03-15T01:49:55.312Z,5.45
2023-03-15T01:52:26.782Z,5.90
2023-03-15T01:54:58.294Z,5.72
2023-03-15T01:57:31.179Z,4.95
2023-03-15T02:00:07.406Z,3.67
2023-03-15T02:02:36.093Z,3.88
2023-03-15T02:05:11.530Z,6.72
2023-03-15T02:10:12.407Z,8.60
2023-03-15T02:12:47.935Z,5.85
2023-03-15T02:15:16.901Z,6.68
2023-03-15T02:17:47.489Z,6.40
2023-03-15T02:20:29.167Z,5.57
2023-03-15T02:23:00.455Z,5.82
2023-03-15T02:25:39.916Z,8.77
2023-03-15T02:28:12.709Z,7.00
2023-03-15T02:30:41.506Z,8.32
2023-03-15T02:33:17.165Z,7.15
2023-03-15T02:35:45.658Z,7.85
2023-03-15T02:38:14.205Z,8.90
2023-03-15T02:40:43.312Z,9.00
2023-03-15T02:43:17.270Z,11.05
2023-03-15T02:45:47.333Z,7.60
2023-03-15T02:48:15.958Z,9.45
2023-03-15T02:50:44.138Z,8.85
2023-03-15T02:53:13.035Z,7.35
2023-03-15T02:55:41.297Z,9.18
2023-03-15T02:58:09.514Z,7.53
2023-03-15T03:00:39.532Z,9.32
2023-03-15T03:03:09.001Z,9.88
2023-03-15T03:05:37.885Z,7.75
2023-03-15T03:08:06.665Z,7.22
2023-03-15T03:10:35.006Z,9.07
2023-03-15T03:13:03.178Z,7.05
2023-03-15T03:15:31.755Z,6.10
2023-03-15T03:18:01.605Z,7.60
2023-03-15T03:20:29.979Z,5.30
2023-03-15T03:22:58.234Z,3.92
2023-03-15T03:25:27.502Z,5.75
2023-03-15T03:27:57.514Z,4.50
2023-03-15T03:30:25.862Z,6.22
2023-03-15T03:32:54.739Z,5.80
2023-03-15T03:35:24.789Z,6.38
2023-03-15T03:37:54.100Z,6.80
2023-03-15T03:40:22.670Z,5.75
2023-03-15T03:42:51.032Z,6.32
2023-03-15T03:45:19.344Z,6.78
2023-03-15T03:47:48.088Z,6.22
2023-03-15T03:50:16.386Z,6.72
2023-03-15T03:52:46.246Z,8.68
2023-03-15T03:55:14.820Z,9.57
2023-03-15T03:57:44.171Z,6.63
2023-03-15T04:00:15.963Z,7.88
2023-03-15T04:02:44.296Z,6.53
2023-03-15T04:05:13.228Z,6.18
2023-03-15T04:07:41.814Z,8.10
2023-03-15T04:10:14.987Z,9.70
2023-03-15T04:12:43.680Z,11.95
2023-03-15T04:15:12.859Z,5.05
2023-03-15T04:17:41.306Z,10.88
2023-03-15T04:20:13.065Z,9.02
2023-03-15T04:22:41.465Z,6.13
2023-03-15T04:25:11.780Z,5.65
2023-03-15T04:27:39.991Z,3.70
2023-03-15T04:30:09.427Z,7.82
2023-03-15T04:32:37.865Z,4.97
2023-03-15T04:35:06.800Z,9.65
2023-03-15T04:37:34.978Z,12.52
2023-03-15T04:40:05.173Z,10.57
2023-03-15T04:42:34.972Z,6.85
2023-03-15T04:45:04.710Z,7.15
2023-03-15T04:47:32.913Z,7.00
2023-03-15T04:50:01.140Z,5.28
2023-03-15T04:52:29.421Z,9.27
2023-03-15T04:54:57.611Z,5.30
2023-03-15T04:57:26.052Z,9.20
2023-03-15T04:59:57.079Z,6.90
2023-03-15T05:02:26.112Z,6.68
2023-03-15T05:04:54.379Z,6.45
2023-03-15T05:07:22.893Z,7.97
2023-03-15T05:09:51.247Z,9.73
2023-03-15T05:12:19.680Z,9.63
2023-03-15T05:14:48.177Z,7.13
2023-03-15T05:17:17.865Z,11.13
2023-03-15T05:19:46.350Z,7.40
2023-03-15T05:22:14.605Z,10.15
2023-03-15T05:24:43.869Z,7.70
2023-03-15T05:27:14.069Z,9.35
2023-03-15T05:29:42.410Z,15.35
2023-03-15T05:32:11.041Z,10.95
2023-03-15T05:34:40.704Z,12.45
2023-03-15T05:37:09.310Z,8.98
2023-03-15T05:39:37.571Z,11.38
2023-03-15T05:42:06.354Z,10.15
2023-03-15T05:44:34.728Z,7.72
2023-03-15T05:47:02.991Z,8.02
2023-03-15T05:49:31.421Z,7.55
2023-03-15T05:52:01.565Z,32.45
2023-03-15T05:54:30.778Z,15.68
2023-03-15T05:56:59.042Z,6.68
2023-03-15T05:59:27.561Z,6.70
2023-03-15T06:01:55.996Z,13.73
2023-03-15T06:04:24.823Z,10.57
2023-03-15T06:06:53.835Z,8.52
2023-03-15T06:09:23.467Z,10.90
2023-03-15T06:11:52.447Z,6.88
2023-03-15T06:14:20.950Z,10.38
2023-03-15T06:16:49.205Z,10.25
2023-03-15T06:19:17.763Z,7.10
2023-03-15T06:21:46.334Z,13.48
2023-03-15T06:24:14.737Z,11.48
2023-03-15T06:26:44.473Z,13.50
2023-03-15T06:29:12.719Z,11.05
2023-03-15T06:31:41.354Z,13.82
2023-03-15T06:34:09.992Z,13.07
2023-03-15T06:36:38.792Z,11.93
2023-03-15T06:39:07.054Z,9.23
2023-03-15T06:41:35.434Z,10.95
2023-03-15T06:44:05.303Z,10.57
2023-03-15T06:46:33.943Z,11.35
2023-03-15T06:49:03.516Z,9.18
2023-03-15T06:51:33.256Z,12.80
2023-03-15T06:54:01.456Z,12.32
2023-03-15T06:56:29.906Z,14.98
2023-03-15T06:58:58.307Z,34.22
2023-03-15T07:01:27.990Z,17.33
2023-03-15T07:03:56.659Z,16.25
2023-03-15T07:06:25.080Z,16.17
2023-03-15T07:08:53.353Z,15.05
2023-03-15T07:11:21.781Z,15.73
2023-03-15T07:13:50.622Z,15.50
2023-03-15T07:16:18.804Z,16.92
2023-03-15T07:18:48.590Z,13.32
2023-03-15T07:21:16.874Z,27.85
2023-03-15T07:23:45.449Z,18.65
2023-03-15T07:26:13.711Z,20.45
2023-03-15T07:28:43.715Z,18.48
2023-03-15T07:31:13.046Z,16.75
2023-03-15T07:33:42.401Z,14.88
2023-03-15T07:36:12.170Z,16.20
2023-03-15T07:38:42.080Z,12.80
2023-03-15T07:41:11.417Z,8.95
2023-03-15T07:43:39.761Z,15.73
2023-03-15T07:46:08.214Z,11.57
2023-03-15T07:48:36.563Z,17.60
2023-03-15T07:51:04.992Z,13.15
2023-03-15T07:53:34.673Z,14.80
2023-03-15T07:56:03.058Z,9.82
2023-03-15T07:58:31.560Z,13.32
2023-03-15T08:01:00.631Z,14.43
2023-03-15T08:03:29.206Z,13.68
2023-03-15T08:05:57.799Z,15.63
2023-03-15T08:08:26.728Z,17.60
2023-03-15T08:10:57.039Z,18.13
2023-03-15T08:13:25.540Z,14.93
2023-03-15T08:15:53.774Z,12.25
2023-03-15T08:18:22.009Z,20.85
2023-03-15T08:20:50.637Z,17.00
2023-03-15T08:23:19.288Z,15.93
2023-03-15T08:25:47.742Z,16.40
2023-03-15T08:28:17.714Z,12.43
2023-03-15T08:30:45.925Z,18.58
2023-03-15T08:33:14.254Z,13.45
2023-03-15T08:35:42.905Z,18.20
2023-03-15T08:38:11.293Z,11.05
2023-03-15T08:40:40.812Z,15.05
2023-03-15T08:43:08.985Z,24.13
2023-03-15T08:45:56.666Z,15.98
2023-03-15T08:48:27.303Z,10.80
2023-03-15T08:50:55.595Z,16.48
2023-03-15T08:53:23.876Z,14.50
2023-03-15T08:55:52.174Z,20.48
2023-03-15T08:58:20.424Z,18.90
2023-03-15T09:00:52.016Z,15.20
2023-03-15T09:03:20.785Z,20.95
2023-03-15T09:05:49.133Z,11.68
2023-03-15T09:08:21.257Z,16.48
2023-03-15T09:10:49.889Z,17.38
2023-03-15T09:13:18.245Z,11.93
2023-03-15T09:15:46.569Z,15.15
2023-03-15T09:18:16.159Z,14.52
2023-03-15T09:20:44.561Z,12.57
2023-03-15T09:23:12.808Z,9.38
2023-03-15T09:25:41.355Z,4.60
2023-03-15T09:28:12.338Z,3.70
2023-03-15T09:30:42.704Z,7.57
2023-03-15T09:33:14.766Z,7.35
2023-03-15T09:35:44.513Z,7.65
2023-03-15T09:38:13.008Z,6.60
2023-03-15T09:40:45.117Z,6.30
2023-03-15T09:43:41.447Z,5.45
2023-03-15T09:48:51.775Z,5.30
2023-03-15T09:51:38.495Z,7.00
2023-03-15T09:54:12.485Z,8.43
2023-03-15T09:56:45.795Z,8.35
2023-03-15T09:59:17.741Z,5.65
2023-03-15T10:01:46.948Z,7.43
2023-03-15T10:04:26.013Z,4.28
2023-03-15T10:06:57.766Z,3.88
2023-03-15T10:09:29.698Z,6.47
2023-03-15T10:12:05.224Z,4.05
2023-03-15T10:17:37.533Z,7.93
2023-03-15T10:20:12.647Z,7.13
2023-03-15T10:22:50.385Z,3.45
2023-03-15T10:25:23.584Z,6.43
2023-03-15T10:27:55.348Z,5.85
2023-03-15T10:30:25.764Z,5.57
2023-03-15T10:32:59.625Z,5.45
2023-03-15T10:35:28.025Z,5.15
2023-03-15T10:37:57.868Z,7.10
2023-03-15T10:40:44.404Z,5.75
2023-03-15T10:43:20.503Z,4.03
2023-03-15T10:45:59.096Z,4.20
2023-03-15T10:48:28.181Z,8.48
2023-03-15T10:50:59.168Z,7.47
2023-03-15T10:53:28.993Z,5.50
2023-03-15T10:56:02.569Z,4.95
2023-03-15T10:58:40.780Z,5.13
2023-03-15T11:01:12.600Z,5.05
2023-03-15T11:03:44.755Z,10.65
2023-03-15T11:06:22.780Z,8.10
2023-03-15T11:08:52.492Z,6.15
2023-03-15T11:11:21.526Z,5.70
2023-03-15T11:14:01.088Z,7.70
2023-03-15T11:16:36.677Z,7.38
2023-03-15T11:19:13.028Z,5.15
2023-03-15T11:21:42.611Z,3.08
2023-03-15T11:24:23.786Z,5.43
2023-03-15T11:26:55.216Z,5.25
2023-03-15T11:29:27.167Z,13.30
2023-03-15T11:31:57.446Z,4.53
2023-03-15T11:34:43.710Z,2.58
2023-03-15T11:37:19.158Z,4.15
2023-03-15T11:42:35.038Z,8.32
2023-03-15T11:45:06.738Z,7.57
2023-03-15T11:47:42.915Z,3.72
2023-03-15T11:50:15.625Z,4.63
2023-03-15T11:52:48.612Z,2.95
2023-03-15T11:55:30.361Z,4.18
2023-03-15T11:57:59.109Z,4.63
2023-03-15T12:00:52.218Z,4.30
2023-03-15T12:03:42.537Z,3.72
2023-03-15T12:06:36.205Z,3.45
2023-03-15T12:09:20.562Z,3.08
2023-03-15T12:11:50.519Z,6.30
2023-03-15T12:14:30.776Z,2.80
2023-03-15T12:17:39.219Z,4.38
2023-03-15T12:20:22.836Z,5.18
2023-03-15T12:22:54.112Z,3.38
2023-03-15T12:25:45.432Z,4.28
2023-03-15T12:28:24.754Z,2.05
2023-03-15T12:30:59.524Z,4.13
2023-03-15T12:33:29.432Z,2.53
2023-03-15T12:36:02.123Z,3.13
2023-03-15T12:38:38.347Z,2.35
2023-03-15T12:41:10.495Z,7.03
2023-03-15T12:43:53.485Z,4.53
2023-03-15T12:46:59.113Z,2.40
2023-03-15T12:49:35.123Z,2.22
2023-03-15T12:52:05.515Z,3.30
2023-03-15T12:54:43.157Z,3.70
2023-03-15T12:57:13.690Z,2.60
2023-03-15T12:59:48.394Z,5.25
2023-03-15T13:02:42.135Z,4.05
2023-03-15T13:05:21.338Z,3.38
2023-03-15T13:07:56.484Z,4.82
2023-03-15T13:10:55.222Z,3.83
2023-03-15T13:13:35.362Z,6.38
2023-03-15T13:16:18.738Z,3.20
2023-03-15T13:18:56.255Z,7.63
2023-03-15T13:21:29.700Z,3.92
2023-03-15T13:24:00.364Z,5.15
2023-03-15T13:26:52.433Z,6.85
2023-03-15T13:29:27.888Z,5.38
2023-03-15T13:34:37.133Z,6.40
2023-03-15T13:37:05.458Z,4.60
2023-03-15T13:39:35.656Z,4.43
2023-03-15T13:42:06.028Z,3.40
2023-03-15T13:44:35.076Z,2.75
2023-03-15T13:47:04.806Z,5.15
2023-03-15T13:49:34.377Z,6.97
2023-03-15T13:52:05.692Z,4.20
2023-03-15T13:54:35.262Z,3.40
2023-03-15T13:57:11.261Z,5.28
2023-03-15T13:59:44.022Z,4.88
2023-03-15T14:02:18.666Z,3.15
2023-03-15T14:04:53.847Z,2.60
2023-03-15T14:07:29.606Z,7.45
2023-03-15T14:10:24.317Z,3.95
2023-03-15T14:12:53.824Z,4.70
2023-03-15T14:15:25.509Z,3.50
2023-03-15T14:18:03.157Z,4.03
2023-03-15T14:20:41.682Z,5.03
2023-03-15T14:23:13.169Z,3.22
2023-03-15T14:25:42.075Z,5.05
2023-03-15T14:28:16.500Z,3.50
2023-03-15T14:30:52.004Z,3.65
2023-03-15T14:35:54.355Z,6.22
2023-03-15T14:38:24.254Z,7.22
2023-03-15T14:40:53.821Z,5.72
2023-03-15T14:43:24.413Z,2.78
2023-03-15T14:45:52.653Z,3.63
2023-03-15T14:48:27.718Z,5.28
2023-03-15T14:50:58.486Z,3.05
2023-03-15T14:53:33.215Z,3.35
2023-03-15T14:56:01.456Z,4.20
2023-03-15T14:58:29.628Z,4.78
2023-03-15T15:00:59.095Z,3.25
2023-03-15T15:03:34.631Z,2.90
2023-03-15T15:06:06.480Z,4.68
2023-03-15T15:08:38.568Z,4.05
2023-03-15T15:11:08.642Z,5.72
2023-03-15T15:13:37.698Z,3.00
2023-03-15T15:16:07.626Z,5.53
2023-03-15T15:18:38.042Z,3.35
2023-03-15T15:21:14.879Z,3.42
2023-03-15T15:23:57.450Z,2.67
2023-03-15T15:26:29.138Z,2.60
2023-03-15T15:28:58.318Z,15.43
2023-03-15T15:31:34.359Z,3.50
2023-03-15T15:34:03.125Z,3.17
2023-03-15T15:36:35.606Z,2.85
2023-03-15T15:39:07.100Z,2.67
2023-03-15T15:41:36.406Z,2.17
2023-03-15T15:44:05.061Z,2.92
2023-03-15T15:46:34.770Z,2.90
2023-03-15T15:49:05.862Z,3.50
2023-03-15T15:51:38.768Z,2.65
2023-03-15T15:54:07.414Z,3.90
2023-03-15T15:56:40.248Z,2.70
2023-03-15T15:59:14.118Z,3.40
2023-03-15T16:01:59.139Z,2.92
2023-03-15T16:04:28.918Z,2.78
2023-03-15T16:07:02.067Z,1.58
2023-03-15T16:09:33.360Z,3.47
2023-03-15T16:12:01.738Z,2.28
2023-03-15T16:14:29.999Z,3.72
2023-03-15T16:16:58.156Z,4.60
2023-03-15T16:19:26.759Z,6.05
2023-03-15T16:21:55.749Z,4.38
2023-03-15T16:24:30.289Z,3.35
2023-03-15T16:27:02.566Z,2.13
2023-03-15T16:29:37.940Z,1.50
2023-03-15T16:32:16.954Z,4.18
2023-03-15T16:34:47.485Z,3.05
2023-03-15T16:37:18.460Z,2.65
2023-03-15T16:39:50.331Z,2.92
2023-03-15T16:42:19.953Z,2.83
2023-03-15T16:44:48.665Z,2.83
2023-03-15T16:47:17.181Z,2.88
2023-03-15T16:49:45.877Z,1.98
2023-03-15T16:52:16.447Z,5.18
2023-03-15T16:54:48.840Z,2.65
2023-03-15T16:57:21.824Z,2.05
2023-03-15T16:59:50.784Z,4.18
2023-03-15T17:02:20.728Z,6.57
2023-03-15T17:04:49.314Z,2.35
2023-03-15T17:07:18.618Z,6.18
2023-03-15T17:09:50.530Z,2.38
2023-03-15T17:12:22.896Z,2.88
2023-03-15T17:14:51.962Z,1.90
2023-03-15T17:17:21.081Z,5.95
2023-03-15T17:19:49.446Z,5.85
2023-03-15T17:22:19.652Z,3.95
2023-03-15T17:24:50.037Z,4.03
2023-03-15T17:27:25.030Z,5.07
2023-03-15T17:29:54.034Z,5.22
2023-03-15T17:32:23.070Z,7.53
2023-03-15T17:34:52.301Z,4.10
2023-03-15T17:37:21.340Z,4.45
2023-03-15T17:39:51.728Z,4.55
2023-03-15T17:42:20.717Z,1.83
2023-03-15T17:44:49.508Z,4.75
2023-03-15T17:47:18.676Z,3.30
2023-03-15T17:49:48.461Z,6.10
2023-03-15T17:52:17.764Z,4.13
2023-03-15T17:54:47.401Z,2.22
2023-03-15T17:57:19.192Z,1.58
2023-03-15T17:59:48.233Z,3.60
2023-03-15T18:02:17.676Z,2.72
2023-03-15T18:04:47.156Z,4.45
2023-03-15T18:07:16.104Z,3.08
2023-03-15T18:09:44.749Z,2.42
2023-03-15T18:12:15.401Z,3.17
2023-03-15T18:14:46.175Z,3.33
2023-03-15T18:17:15.224Z,4.43
2023-03-15T18:19:44.116Z,4.15
2023-03-15T18:22:16.920Z,6.70
2023-03-15T18:24:47.151Z,4.93
2023-03-15T18:27:15.931Z,4.57
2023-03-15T18:29:46.554Z,6.50
2023-03-15T18:32:15.527Z,3.90
2023-03-15T18:34:44.618Z,6.70
2023-03-15T18:37:13.297Z,4.20
2023-03-15T18:39:42.228Z,7.97
2023-03-15T18:42:11.774Z,6.70
2023-03-15T18:44:40.481Z,6.78
2023-03-15T18:47:10.504Z,7.13
2023-03-15T18:49:39.249Z,11.18
2023-03-15T18:52:07.810Z,7.25
2023-03-15T18:54:37.180Z,5.90
2023-03-15T18:57:06.321Z,7.55
2023-03-15T18:59:35.259Z,6.82
2023-03-15T19:02:05.043Z,5.10
2023-03-15T19:04:35.154Z,8.15
2023-03-15T19:07:03.711Z,5.28
2023-03-15T19:09:32.616Z,5.47
2023-03-15T19:12:01.353Z,3.60
2023-03-15T19:14:29.882Z,6.13
2023-03-15T19:16:58.796Z,7.60
2023-03-15T19:19:27.692Z,8.85
2023-03-15T19:21:57.757Z,12.05
2023-03-15T19:24:26.865Z,9.85
2023-03-15T19:26:55.446Z,6.45
2023-03-15T19:29:23.922Z,8.38
2023-03-15T19:31:52.425Z,7.32
2023-03-15T19:34:20.893Z,9.40
2023-03-15T19:36:49.388Z,9.73
2023-03-15T19:39:19.498Z,11.95
2023-03-15T19:41:48.265Z,5.85
2023-03-15T19:44:17.571Z,7.22
2023-03-15T19:46:46.494Z,10.25
2023-03-15T19:49:15.074Z,9.60
2023-03-15T19:51:43.628Z,6.75
2023-03-15T19:54:12.133Z,9.95
2023-03-15T19:56:42.078Z,22.05
2023-03-15T19:59:10.713Z,9.48
2023-03-15T20:01:39.258Z,11.07
2023-03-15T20:04:08.222Z,9.90
2023-03-15T20:06:36.758Z,13.85
2023-03-15T20:09:06.021Z,13.60
2023-03-15T20:11:34.666Z,9.70
2023-03-15T20:14:04.859Z,9.93
2023-03-15T20:16:33.441Z,7.95
2023-03-15T20:19:02.322Z,10.95
2023-03-15T20:21:31.017Z,13.15
2023-03-15T20:23:59.832Z,10.50
2023-03-15T20:26:30.531Z,8.50
2023-03-15T20:28:59.558Z,13.45
2023-03-15T20:31:29.696Z,14.20
2023-03-15T20:33:58.330Z,10.60
2023-03-15T20:36:26.931Z,8.75
2023-03-15T20:38:55.440Z,12.27
2023-03-15T20:41:24.075Z,25.02
2023-03-15T20:43:52.732Z,11.00
2023-03-15T20:46:22.737Z,10.25
2023-03-15T20:48:53.514Z,9.07
2023-03-15T20:51:22.371Z,10.43
2023-03-15T20:53:51.103Z,6.07
2023-03-15T20:56:20.451Z,8.40
2023-03-15T20:58:49.700Z,10.00
2023-03-15T21:01:18.978Z,10.55
2023-03-15T21:03:48.807Z,7.80
2023-03-15T21:06:19.592Z,12.02
2023-03-15T21:08:51.401Z,14.70
2023-03-15T21:11:21.460Z,10.15
2023-03-15T21:13:50.453Z,8.02
2023-03-15T21:16:20.454Z,8.48
2023-03-15T21:18:52.445Z,12.68
2023-03-15T21:21:23.523Z,14.95
2023-03-15T21:23:55.099Z,10.18
2023-03-15T21:26:24.439Z,12.45
2023-03-15T21:28:53.514Z,13.50
2023-03-15T21:31:23.112Z,12.07
2023-03-15T21:33:52.243Z,10.30
2023-03-15T21:36:23.046Z,7.57
2023-03-15T21:38:55.337Z,13.23
2023-03-15T21:41:24.436Z,7.78
2023-03-15T21:43:53.810Z,8.75
2023-03-15T21:46:24.274Z,10.05
2023-03-15T21:48:53.097Z,8.32
2023-03-15T21:51:23.880Z,9.57
2023-03-15T21:53:52.456Z,12.90
2023-03-15T21:56:26.441Z,7.85
2023-03-15T21:58:54.964Z,9.82
2023-03-15T22:01:24.058Z,8.50
2023-03-15T22:03:54.752Z,11.32
2023-03-15T22:06:24.849Z,8.35
2023-03-15T22:08:53.491Z,9.48
2023-03-15T22:11:22.976Z,9.48
2023-03-15T22:13:52.806Z,9.32
2023-03-15T22:16:21.924Z,10.55
2023-03-15T22:18:50.414Z,9.90
2023-03-15T22:21:19.020Z,7.32
2023-03-15T22:23:48.880Z,11.13
2023-03-15T22:26:17.348Z,12.68
2023-03-15T22:28:45.815Z,9.60
2023-03-15T22:31:14.336Z,9.20
2023-03-15T22:33:43.339Z,10.57
2023-03-15T22:36:12.092Z,13.00
2023-03-15T22:38:40.865Z,8.50
2023-03-15T22:41:14.141Z,10.82
2023-03-15T22:43:43.104Z,10.43
2023-03-15T22:46:11.881Z,9.93
2023-03-15T22:48:40.322Z,8.35
2023-03-15T22:51:09.776Z,7.13
2023-03-15T22:53:38.363Z,7.75
2023-03-15T22:56:07.235Z,9.18
2023-03-15T22:58:37.329Z,7.18
2023-03-15T23:01:05.977Z,10.45
2023-03-15T23:03:34.679Z,8.75
2023-03-15T23:06:04.277Z,10.18
2023-03-15T23:08:32.913Z,7.53
2023-03-15T23:11:01.596Z,13.23
2023-03-15T23:13:30.127Z,8.18
2023-03-15T23:16:00.010Z,8.57
2023-03-15T23:18:28.627Z,7.60
2023-03-15T23:21:04.988Z,9.07
2023-03-15T23:23:33.520Z,11.10
2023-03-15T23:26:02.647Z,7.63
2023-03-15T23:28:31.144Z,8.65
2023-03-15T23:31:03.339Z,10.02
2023-03-15T23:33:34.103Z,7.03
2023-03-15T23:36:02.890Z,8.20
2023-03-15T23:38:34.537Z,9.23
2023-03-15T23:41:05.396Z,11.80
2023-03-15T23:43:34.943Z,9.60
2023-03-15T23:46:05.938Z,14.50
2023-03-15T23:48:37.112Z,9.25
2023-03-15T23:51:05.791Z,8.18
2023-03-15T23:53:34.366Z,7.85
2023-03-15T23:56:02.904Z,9.07
2023-03-15T23:58:31.799Z,9.75
